Time;durP1;ratioP1;P1;durP2;ratioP2;P2;SDS_P1;SDS_P2;PMS_P1;PMS_P2;Temp;Humidity;BMP_temperature;BMP_pressure;BME280_temperature;BME280_humidity;BME280_pressure;Samples;Min_cycle;Max_cycle;Signal;HPM_P1;HPM_P2
2024/01/14 00:01:05;;;;;;;60.88;38.45;;;1.90;99.00;;;;;;4248578;27;20046;-61
2024/01/14 00:03:07;;;;;;;63.40;39.25;;;2.00;98.30;;;;;;4248449;27;20051;-61
2024/01/14 00:05:10;;;;;;;67.28;39.03;;;2.10;98.80;;;;;;4248612;27;20055;-62
2024/01/14 00:07:14;;;;;;;67.28;41.20;;;2.20;98.80;;;;;;4230214;28;20050;-61
2024/01/14 00:09:16;;;;;;;66.80;39.92;;;2.20;98.00;;;;;;4248311;27;20121;-62
2024/01/14 00:11:18;;;;;;;70.45;42.42;;;2.20;98.30;;;;;;4248381;27;20051;-62
2024/01/14 00:13:21;;;;;;;63.58;38.88;;;2.10;97.70;;;;;;4248969;27;20051;-62
2024/01/14 00:15:23;;;;;;;64.75;40.08;;;2.10;98.20;;;;;;4249457;27;20488;-62
2024/01/14 00:17:25;;;;;;;65.90;40.70;;;2.00;97.90;;;;;;4250612;27;20115;-65
2024/01/14 00:19:32;;;;;;;63.92;39.67;;;2.00;97.40;;;;;;4248872;27;20130;-62
2024/01/14 00:21:36;;;;;;;66.73;39.97;;;2.10;97.80;;;;;;4230681;28;20055;-62
2024/01/14 00:23:39;;;;;;;68.47;40.42;;;1.80;97.50;;;;;;4248490;27;20043;-62
2024/01/14 00:25:41;;;;;;;66.88;39.45;;;1.90;97.90;;;;;;4230173;28;20047;-62
2024/01/14 00:27:45;;;;;;;63.60;38.17;;;1.90;97.70;;;;;;4248440;27;20090;-62
2024/01/14 00:29:47;;;;;;;58.97;37.97;;;2.00;98.70;;;;;;4247956;27;20122;-61
2024/01/14 00:31:49;;;;;;;68.00;41.83;;;1.90;97.70;;;;;;4247966;27;20051;-63
2024/01/14 00:33:51;;;;;;;72.45;41.05;;;1.90;97.60;;;;;;4249185;27;20432;-61
2024/01/14 00:35:54;;;;;;;72.10;43.35;;;1.80;97.40;;;;;;4250029;27;20047;-62
2024/01/14 00:37:59;;;;;;;68.03;41.72;;;1.70;96.90;;;;;;4248985;27;20092;-67
2024/01/14 00:40:04;;;;;;;67.85;39.17;;;1.50;97.50;;;;;;4248152;27;20070;-60
2024/01/14 00:42:06;;;;;;;68.88;41.00;;;1.50;98.30;;;;;;4248487;27;20413;-62
2024/01/14 00:44:09;;;;;;;66.95;39.85;;;1.40;98.20;;;;;;4247881;27;20043;-62
2024/01/14 00:46:12;;;;;;;66.53;40.08;;;1.50;98.00;;;;;;4248408;27;20478;-62
2024/01/14 00:48:14;;;;;;;72.97;41.58;;;1.40;98.00;;;;;;4248532;27;20049;-63
2024/01/14 00:50:16;;;;;;;73.18;44.25;;;1.40;97.90;;;;;;4248069;28;20069;-62
2024/01/14 00:52:18;;;;;;;67.85;40.65;;;1.30;97.70;;;;;;4247891;28;20043;-62
2024/01/14 00:54:22;;;;;;;63.08;37.20;;;1.30;97.90;;;;;;4248128;28;20447;-64
2024/01/14 00:56:24;;;;;;;68.72;39.47;;;1.30;99.40;;;;;;4247975;28;20474;-61
2024/01/14 00:58:26;;;;;;;71.47;41.55;;;1.40;98.60;;;;;;4248461;28;20070;-62
2024/01/14 01:00:28;;;;;;;67.82;40.40;;;1.30;98.70;;;;;;4248638;28;20039;-66
2024/01/14 01:02:30;;;;;;;71.22;40.95;;;1.20;98.30;;;;;;4249151;28;20047;-63
2024/01/14 01:04:33;;;;;;;70.43;41.67;;;1.10;98.30;;;;;;4249007;28;20100;-62
2024/01/14 01:06:35;;;;;;;72.03;41.85;;;1.10;97.90;;;;;;4249064;28;20043;-64
2024/01/14 01:08:37;;;;;;;65.32;38.28;;;1.20;98.20;;;;;;4249066;28;20374;-63
2024/01/14 01:10:41;;;;;;;62.92;38.47;;;1.20;98.60;;;;;;4248399;28;20054;-62
2024/01/14 01:12:44;;;;;;;;;;;1.30;99.00;;;;;;4248814;28;20047;-62
2024/01/14 01:14:47;;;;;;;64.30;38.72;;;1.40;99.20;;;;;;4247576;28;20015;-61
2024/01/14 01:16:51;;;;;;;65.47;38.90;;;1.40;98.70;;;;;;4248074;28;20039;-61
2024/01/14 01:18:53;;;;;;;63.63;38.90;;;1.50;98.50;;;;;;4229542;28;20052;-62
2024/01/14 01:20:56;;;;;;;68.07;40.67;;;1.50;98.50;;;;;;4247864;28;20039;-63
2024/01/14 01:22:58;;;;;;;63.30;37.65;;;1.40;97.90;;;;;;4248087;28;20054;-62
2024/01/14 01:25:01;;;;;;;69.53;40.67;;;1.20;97.50;;;;;;4247884;28;20092;-62
2024/01/14 01:27:05;;;;;;;63.08;38.58;;;1.20;98.40;;;;;;4247781;28;20070;-62
2024/01/14 01:29:08;;;;;;;59.97;37.05;;;1.30;98.90;;;;;;4247897;28;20436;-61
2024/01/14 01:31:10;;;;;;;58.45;35.67;;;1.50;99.10;;;;;;4249502;28;20047;-62
2024/01/14 01:33:15;;;;;;;63.35;36.80;;;1.60;99.70;;;;;;4249557;28;20477;-66
2024/01/14 01:35:18;;;;;;;62.88;38.50;;;1.50;98.90;;;;;;4248509;28;20047;-62
2024/01/14 01:37:20;;;;;;;59.72;36.50;;;1.70;99.00;;;;;;4247892;28;20074;-62
2024/01/14 01:39:25;;;;;;;67.93;39.78;;;1.60;98.80;;;;;;4247583;28;20050;-62
2024/01/14 01:41:27;;;;;;;65.50;38.38;;;1.60;97.70;;;;;;4247732;28;20047;-62
2024/01/14 01:43:30;;;;;;;62.47;36.50;;;1.60;98.60;;;;;;4247413;28;20050;-62
2024/01/14 01:45:33;;;;;;;61.35;36.53;;;1.50;98.10;;;;;;4247744;28;20451;-63
2024/01/14 01:47:36;;;;;;;60.55;36.47;;;1.60;98.70;;;;;;4247637;28;20051;-62
2024/01/14 01:49:39;;;;;;;63.08;36.55;;;1.70;98.60;;;;;;4247449;28;20130;-62
2024/01/14 01:51:47;;;;;;;71.05;38.15;;;1.60;98.10;;;;;;4247595;28;20051;-62
2024/01/14 01:53:49;;;;;;;65.45;37.35;;;1.60;98.20;;;;;;4247526;28;20427;-62
2024/01/14 01:55:52;;;;;;;62.70;37.00;;;1.50;98.50;;;;;;4248884;27;20047;-62
2024/01/14 01:57:55;;;;;;;59.92;34.30;;;1.60;98.80;;;;;;4232089;28;20046;-62
2024/01/14 01:59:59;;;;;;;62.65;36.90;;;1.60;98.30;;;;;;4250465;27;20038;-62
2024/01/14 02:02:03;;;;;;;56.10;33.30;;;1.60;98.10;;;;;;4250483;27;20075;-61
2024/01/14 02:04:07;;;;;;;49.05;27.95;;;1.80;98.80;;;;;;4250563;27;20050;-61
2024/01/14 02:06:11;;;;;;;64.97;39.38;;;1.70;97.90;;;;;;4250577;27;20045;-62
2024/01/14 02:08:13;;;;;;;59.90;35.05;;;1.50;97.90;;;;;;4249935;27;20369;-60
2024/01/14 02:10:16;;;;;;;60.38;37.00;;;1.50;98.70;;;;;;4250380;27;20051;-61
2024/01/14 02:12:18;;;;;;;53.22;33.95;;;1.50;98.20;;;;;;4250694;27;20047;-61
2024/01/14 02:14:20;;;;;;;57.30;35.33;;;1.50;98.60;;;;;;4251211;27;20478;-61
2024/01/14 02:16:24;;;;;;;53.95;34.28;;;1.40;98.20;;;;;;4250898;27;20385;-61
2024/01/14 02:18:26;;;;;;;57.13;34.50;;;1.40;98.30;;;;;;4252737;27;20070;-63
2024/01/14 02:20:28;;;;;;;57.35;36.05;;;1.40;99.00;;;;;;4253504;27;20116;-62
2024/01/14 02:22:36;;;;;;;62.80;37.08;;;1.50;98.60;;;;;;4251657;27;20039;-62
2024/01/14 02:24:39;;;;;;;61.60;39.50;;;1.50;98.40;;;;;;4250432;27;20492;-62
2024/01/14 02:26:42;;;;;;;62.63;39.00;;;1.50;98.20;;;;;;4249823;27;20043;-61
2024/01/14 02:28:49;;;;;;;63.28;38.38;;;1.40;98.40;;;;;;4250034;27;20044;-62
2024/01/14 02:30:53;;;;;;;64.97;38.83;;;1.50;98.60;;;;;;4250031;27;20130;-61
2024/01/14 02:32:55;;;;;;;60.38;37.80;;;1.50;97.90;;;;;;4250246;27;20054;-61
2024/01/14 02:34:58;;;;;;;66.25;38.25;;;1.60;98.70;;;;;;4250128;27;20452;-62
2024/01/14 02:37:00;;;;;;;62.78;39.10;;;1.60;98.60;;;;;;4250340;27;20039;-62
2024/01/14 02:39:04;;;;;;;56.53;36.80;;;1.70;98.60;;;;;;4249922;27;20051;-62
2024/01/14 02:41:16;;;;;;;57.35;35.80;;;1.80;98.30;;;;;;4249870;27;20074;-71
2024/01/14 02:43:19;;;;;;;59.17;37.10;;;1.70;98.30;;;;;;4250798;27;20066;-61
2024/01/14 02:45:21;;;;;;;63.10;38.58;;;1.70;98.40;;;;;;4251279;27;20076;-63
2024/01/14 02:47:24;;;;;;;54.58;35.05;;;1.80;98.60;;;;;;4251046;27;20126;-61
2024/01/14 02:49:26;;;;;;;51.33;32.97;;;1.90;98.30;;;;;;4250957;27;20039;-61
2024/01/14 02:51:28;;;;;;;58.47;34.72;;;1.90;98.40;;;;;;4251033;27;20039;-62
2024/01/14 02:53:30;;;;;;;57.03;36.20;;;1.70;98.00;;;;;;4250446;27;20050;-61
2024/01/14 02:55:33;;;;;;;54.22;35.10;;;1.60;98.00;;;;;;4249408;27;20451;-63
2024/01/14 02:57:36;;;;;;;49.92;31.33;;;1.50;98.10;;;;;;4231576;28;20040;-62
2024/01/14 02:59:38;;;;;;;47.72;30.98;;;1.60;98.90;;;;;;4249727;27;20046;-62
2024/01/14 03:01:44;;;;;;;53.70;33.47;;;1.50;98.50;;;;;;4250963;27;20051;-62
2024/01/14 03:03:47;;;;;;;52.22;33.05;;;1.70;98.60;;;;;;4250787;27;20047;-62
2024/01/14 03:05:49;;;;;;;53.38;33.65;;;1.50;98.40;;;;;;4250823;27;20467;-61
2024/01/14 03:07:52;;;;;;;46.17;30.40;;;1.40;98.00;;;;;;4251525;27;20115;-62
2024/01/14 03:09:54;;;;;;;46.42;30.38;;;1.30;98.50;;;;;;4251983;27;20079;-63
2024/01/14 03:11:56;;;;;;;51.03;32.83;;;1.30;98.90;;;;;;4253367;27;20138;-62
2024/01/14 03:13:59;;;;;;;48.35;30.52;;;1.40;98.70;;;;;;4252655;27;20043;-65
2024/01/14 03:16:02;;;;;;;46.30;29.95;;;1.50;98.60;;;;;;4252689;27;20130;-61
2024/01/14 03:18:04;;;;;;;47.92;30.77;;;1.50;98.90;;;;;;4250824;27;20047;-61
2024/01/14 03:20:08;;;;;;;46.30;30.88;;;1.70;98.70;;;;;;4250940;27;20100;-64
2024/01/14 03:22:10;;;;;;;49.22;31.40;;;1.60;98.50;;;;;;4249458;27;20130;-62
2024/01/14 03:24:12;;;;;;;50.05;32.00;;;1.60;98.40;;;;;;4249219;27;20047;-62
2024/01/14 03:26:15;;;;;;;41.17;28.05;;;1.60;98.50;;;;;;4248990;27;20043;-62
2024/01/14 03:28:17;;;;;;;44.97;29.90;;;1.60;98.40;;;;;;4249010;27;20096;-62
2024/01/14 03:30:20;;;;;;;40.25;26.92;;;1.70;98.60;;;;;;4249140;27;20065;-61
2024/01/14 03:32:22;;;;;;;43.55;28.55;;;1.80;99.10;;;;;;4248950;27;20541;-62
2024/01/14 03:34:24;;;;;;;46.75;30.02;;;2.00;98.40;;;;;;4249236;27;20044;-61
2024/01/14 03:36:27;;;;;;;47.72;31.17;;;2.00;97.80;;;;;;4249083;27;20436;-61
2024/01/14 03:38:30;;;;;;;46.88;30.20;;;1.90;97.90;;;;;;4248786;27;20051;-61
2024/01/14 03:40:33;;;;;;;46.83;28.02;;;1.90;97.90;;;;;;4249189;27;20049;-61
2024/01/14 03:42:35;;;;;;;45.50;29.90;;;2.00;98.50;;;;;;4250483;27;20190;-66
2024/01/14 03:44:37;;;;;;;47.35;31.60;;;2.10;98.50;;;;;;4250079;27;20055;-62
2024/01/14 03:46:41;;;;;;;49.58;32.17;;;2.10;97.70;;;;;;4250467;27;20537;-61
2024/01/14 03:48:43;;;;;;;40.47;25.02;;;2.10;98.00;;;;;;4249857;27;20057;-61
2024/01/14 03:50:45;;;;;;;55.95;36.13;;;2.20;97.70;;;;;;4251115;27;20043;-64
2024/01/14 03:52:47;;;;;;;51.75;34.45;;;2.10;97.80;;;;;;4251502;27;20040;-68
2024/01/14 03:54:51;;;;;;;57.53;37.88;;;2.10;97.80;;;;;;4251840;27;20108;-64
2024/01/14 03:56:53;;;;;;;54.33;34.90;;;1.90;97.60;;;;;;4250473;27;20043;-63
2024/01/14 03:58:56;;;;;;;56.53;38.42;;;1.80;97.80;;;;;;4249940;27;20130;-68
2024/01/14 04:00:58;;;;;;;58.25;37.72;;;1.80;97.40;;;;;;4249873;27;20125;-61
2024/01/14 04:03:03;;;;;;;53.78;36.03;;;1.80;97.90;;;;;;4249911;27;20076;-62
2024/01/14 04:05:05;;;;;;;51.88;34.20;;;1.80;98.30;;;;;;4250103;27;20105;-62
2024/01/14 04:07:08;;;;;;;51.20;32.20;;;1.80;98.10;;;;;;4249360;27;20043;-63
2024/01/14 04:09:11;;;;;;;46.97;31.45;;;1.80;97.90;;;;;;4248606;27;20077;-62
2024/01/14 04:11:16;;;;;;;46.92;31.42;;;1.70;97.80;;;;;;4248570;27;20058;-62
2024/01/14 04:13:18;;;;;;;;;;;1.70;98.00;;;;;;4249177;27;20539;-62
2024/01/14 04:15:22;;;;;;;49.88;32.05;;;1.70;98.40;;;;;;4249290;27;19942;-61
2024/01/14 04:17:24;;;;;;;43.95;28.80;;;1.70;98.20;;;;;;4250130;27;20076;-63
2024/01/14 04:19:28;;;;;;;52.40;34.50;;;1.60;97.60;;;;;;4249118;27;20404;-63
2024/01/14 04:21:30;;;;;;;54.80;35.88;;;1.40;98.00;;;;;;4248549;27;20044;-62
2024/01/14 04:23:32;;;;;;;47.55;32.42;;;1.50;98.70;;;;;;4248905;27;20051;-62
2024/01/14 04:25:34;;;;;;;53.38;35.25;;;1.50;98.40;;;;;;4249330;27;20504;-62
2024/01/14 04:27:36;;;;;;;48.63;32.65;;;1.60;98.30;;;;;;4249787;27;20050;-62
2024/01/14 04:29:39;;;;;;;57.10;36.35;;;1.60;98.40;;;;;;4249476;27;20051;-62
2024/01/14 04:31:43;;;;;;;48.38;31.08;;;1.50;98.00;;;;;;4249494;27;20072;-63
2024/01/14 04:33:47;;;;;;;44.58;30.55;;;1.70;98.50;;;;;;4249203;27;20059;-63
2024/01/14 04:35:51;;;;;;;48.65;31.48;;;1.70;98.60;;;;;;4248649;27;20497;-62
2024/01/14 04:37:53;;;;;;;49.92;32.50;;;1.70;98.30;;;;;;4248114;27;20486;-62
2024/01/14 04:39:55;;;;;;;47.25;32.67;;;1.70;97.80;;;;;;4229899;28;20127;-62
2024/01/14 04:41:57;;;;;;;49.03;32.60;;;1.70;98.10;;;;;;4248164;27;20043;-62
2024/01/14 04:43:59;;;;;;;46.90;32.58;;;1.70;97.90;;;;;;4248095;27;20050;-62
2024/01/14 04:46:02;;;;;;;48.25;31.77;;;1.60;97.70;;;;;;4248031;27;20481;-62
2024/01/14 04:48:04;;;;;;;47.65;32.33;;;1.50;97.50;;;;;;4248042;27;20043;-61
2024/01/14 04:50:07;;;;;;;47.30;30.92;;;1.40;97.30;;;;;;4248137;28;20053;-62
2024/01/14 04:52:11;;;;;;;44.38;30.27;;;1.50;97.70;;;;;;4247732;28;20408;-62
2024/01/14 04:54:13;;;;;;;44.90;31.25;;;1.60;98.70;;;;;;4247890;28;20062;-62
2024/01/14 04:56:15;;;;;;;46.22;31.58;;;1.60;97.70;;;;;;4247955;28;20050;-61
2024/01/14 04:58:17;;;;;;;46.17;31.55;;;1.30;97.70;;;;;;4248106;28;20428;-62
2024/01/14 05:00:19;;;;;;;46.80;32.22;;;1.40;98.20;;;;;;4247766;28;20071;-62
2024/01/14 05:02:21;;;;;;;43.85;30.45;;;1.40;97.70;;;;;;4248090;28;20097;-61
2024/01/14 05:04:24;;;;;;;45.72;30.77;;;1.40;98.10;;;;;;4248051;28;20039;-62
2024/01/14 05:06:26;;;;;;;41.15;29.58;;;1.40;98.30;;;;;;4248176;28;20126;-61
2024/01/14 05:08:29;;;;;;;47.10;32.45;;;1.40;98.50;;;;;;4250615;28;20058;-62
2024/01/14 05:10:32;;;;;;;41.72;28.17;;;1.30;97.80;;;;;;4250236;28;20039;-70
2024/01/14 05:12:34;;;;;;;44.70;29.65;;;1.20;98.30;;;;;;4249627;28;20062;-62
2024/01/14 05:14:37;;;;;;;45.13;30.83;;;1.30;98.10;;;;;;4213283;28;20070;-63
2024/01/14 05:16:39;;;;;;;45.42;31.00;;;1.30;98.00;;;;;;4229946;28;20055;-61
2024/01/14 05:18:41;;;;;;;43.20;30.13;;;1.30;98.30;;;;;;4247981;28;20050;-61
2024/01/14 05:20:44;;;;;;;46.25;31.15;;;1.40;98.10;;;;;;4247614;28;20050;-62
2024/01/14 05:22:46;;;;;;;46.60;32.00;;;1.50;98.60;;;;;;4247906;28;20112;-62
2024/01/14 05:24:50;;;;;;;45.50;29.25;;;1.60;97.80;;;;;;4247906;28;20069;-61
2024/01/14 05:26:53;;;;;;;43.40;29.85;;;1.50;97.60;;;;;;4247533;28;20050;-66
2024/01/14 05:28:59;;;;;;;45.47;30.08;;;1.50;98.20;;;;;;4248180;28;20040;-63
2024/01/14 05:31:03;;;;;;;44.17;30.20;;;1.60;98.10;;;;;;4251472;27;20121;-62
2024/01/14 05:33:05;;;;;;;50.28;31.02;;;1.70;98.00;;;;;;4251179;27;20112;-61
2024/01/14 05:35:07;;;;;;;47.35;30.73;;;1.80;98.10;;;;;;4251097;27;20099;-61
2024/01/14 05:37:09;;;;;;;51.97;34.25;;;1.80;98.50;;;;;;4251060;27;20134;-61
2024/01/14 05:39:11;;;;;;;52.25;33.85;;;1.80;97.90;;;;;;4251322;27;20354;-62
2024/01/14 05:41:15;;;;;;;58.60;36.83;;;1.80;98.00;;;;;;4250541;27;20047;-61
2024/01/14 05:43:18;;;;;;;44.63;28.33;;;1.90;97.80;;;;;;4250753;27;20112;-61
2024/01/14 05:45:20;;;;;;;55.17;36.00;;;1.90;97.70;;;;;;4250976;27;20122;-61
2024/01/14 05:47:22;;;;;;;60.45;37.72;;;2.00;97.90;;;;;;4232607;28;20043;-61
2024/01/14 05:49:24;;;;;;;59.53;38.35;;;1.80;97.50;;;;;;4250611;27;20047;-61
2024/01/14 05:51:26;;;;;;;58.17;37.08;;;1.80;97.50;;;;;;4250810;27;20568;-61
2024/01/14 05:53:28;;;;;;;58.10;36.13;;;1.70;97.90;;;;;;4251498;27;20046;-62
2024/01/14 05:55:30;;;;;;;57.95;37.17;;;1.80;98.30;;;;;;4251155;27;20066;-61
2024/01/14 05:57:34;;;;;;;54.10;35.03;;;1.90;98.10;;;;;;4251365;27;20436;-62
2024/01/14 05:59:36;;;;;;;56.60;37.17;;;1.90;98.10;;;;;;4250438;27;20039;-61
2024/01/14 06:01:38;;;;;;;55.97;37.45;;;2.00;98.00;;;;;;4232585;28;20048;-62
2024/01/14 06:03:41;;;;;;;57.38;36.30;;;1.90;97.50;;;;;;4250450;27;20069;-62
2024/01/14 06:05:44;;;;;;;46.10;31.70;;;1.80;97.60;;;;;;4250462;27;20054;-61
2024/01/14 06:07:49;;;;;;;46.80;30.90;;;1.70;97.50;;;;;;4250652;27;20051;-61
2024/01/14 06:09:51;;;;;;;50.28;33.75;;;1.60;97.70;;;;;;4251262;27;20059;-62
2024/01/14 06:11:53;;;;;;;45.05;30.63;;;1.60;97.50;;;;;;4250935;27;20487;-62
2024/01/14 06:13:57;;;;;;;48.05;31.30;;;1.60;97.50;;;;;;4251129;27;20047;-63
2024/01/14 06:15:59;;;;;;;48.72;32.15;;;1.40;97.40;;;;;;4251102;27;20493;-63
2024/01/14 06:18:01;;;;;;;49.40;31.65;;;1.30;97.70;;;;;;4250282;27;20118;-61
2024/01/14 06:20:04;;;;;;;51.55;33.60;;;1.30;98.20;;;;;;4250876;27;20055;-61
2024/01/14 06:22:06;;;;;;;51.20;33.72;;;1.20;97.80;;;;;;4251266;27;20043;-61
2024/01/14 06:24:09;;;;;;;49.35;32.05;;;1.20;97.80;;;;;;4250793;27;20047;-62
2024/01/14 06:26:15;;;;;;;54.08;35.25;;;1.20;97.70;;;;;;4250537;27;20065;-61
2024/01/14 06:28:17;;;;;;;53.60;34.83;;;1.20;97.90;;;;;;4251008;27;20042;-62
2024/01/14 06:30:21;;;;;;;50.88;34.15;;;1.10;97.90;;;;;;4250905;27;20035;-61
2024/01/14 06:32:23;;;;;;;57.47;35.67;;;1.10;97.80;;;;;;4250519;27;20062;-62
2024/01/14 06:34:25;;;;;;;55.30;34.00;;;1.20;97.80;;;;;;4250495;27;20126;-62
2024/01/14 06:36:27;;;;;;;54.17;35.03;;;1.10;97.80;;;;;;4250539;27;20540;-62
2024/01/14 06:38:30;;;;;;;54.55;35.47;;;1.00;97.80;;;;;;4250344;27;20049;-62
2024/01/14 06:40:32;;;;;;;54.17;35.03;;;1.10;98.10;;;;;;4250347;27;20439;-61
2024/01/14 06:42:45;;;;;;;55.05;35.83;;;1.20;98.10;;;;;;4249675;27;20051;-63
2024/01/14 06:44:47;;;;;;;58.67;36.17;;;1.00;97.90;;;;;;4249773;27;20054;-62
2024/01/14 06:46:51;;;;;;;52.60;34.35;;;1.00;98.10;;;;;;4249487;27;20062;-61
2024/01/14 06:48:53;;;;;;;62.75;38.53;;;1.00;98.10;;;;;;4250063;27;20096;-61
2024/01/14 06:50:56;;;;;;;56.85;36.17;;;0.90;98.10;;;;;;4249780;27;20047;-62
2024/01/14 06:52:58;;;;;;;56.15;35.45;;;0.90;98.10;;;;;;4249889;27;20447;-61
2024/01/14 06:55:00;;;;;;;56.55;34.75;;;0.90;98.00;;;;;;4249590;27;20054;-61
2024/01/14 06:57:02;;;;;;;56.70;35.28;;;1.00;98.20;;;;;;4251826;27;20047;-61
2024/01/14 06:59:05;;;;;;;54.90;34.55;;;1.00;98.40;;;;;;4250689;27;20550;-62
2024/01/14 07:01:07;;;;;;;52.70;32.95;;;1.00;98.10;;;;;;4249657;27;20404;-61
2024/01/14 07:03:16;;;;;;;58.45;37.47;;;1.10;98.60;;;;;;4249632;27;20065;-62
2024/01/14 07:05:18;;;;;;;50.63;32.75;;;1.10;98.20;;;;;;4249739;27;20043;-62
2024/01/14 07:07:20;;;;;;;55.50;34.70;;;1.10;98.00;;;;;;4250159;27;20409;-62
2024/01/14 07:09:23;;;;;;;57.85;35.17;;;1.10;97.80;;;;;;4251158;27;20047;-61
2024/01/14 07:11:25;;;;;;;56.38;35.90;;;1.10;97.90;;;;;;4250477;27;20104;-62
2024/01/14 07:13:27;;;;;;;54.75;35.63;;;1.20;98.50;;;;;;4249345;27;20047;-62
2024/01/14 07:15:29;;;;;;;59.03;36.50;;;1.20;97.60;;;;;;4249434;27;20047;-61
2024/01/14 07:17:31;;;;;;;55.30;35.55;;;1.10;97.40;;;;;;4248934;27;20039;-62
2024/01/14 07:19:54;;;;;;;55.28;35.65;;;1.10;98.30;;;;;;4249107;27;20043;-61
2024/01/14 07:21:57;;;;;;;45.60;28.43;;;1.20;98.10;;;;;;4249506;27;20442;-62
2024/01/14 07:23:59;;;;;;;52.75;35.15;;;1.10;97.50;;;;;;4249319;27;20210;-62
2024/01/14 07:26:03;;;;;;;56.30;35.67;;;1.20;98.60;;;;;;4249327;27;20108;-62
2024/01/14 07:28:06;;;;;;;58.10;36.45;;;1.30;98.00;;;;;;4249053;27;20067;-61
2024/01/14 07:30:09;;;;;;;56.22;35.40;;;1.30;97.50;;;;;;4248751;27;20074;-62
2024/01/14 07:32:11;;;;;;;58.35;37.47;;;1.10;97.80;;;;;;4249119;27;20126;-62
2024/01/14 07:34:13;;;;;;;60.80;37.95;;;1.20;98.10;;;;;;4230417;28;20461;-61
2024/01/14 07:36:17;;;;;;;53.50;35.55;;;1.10;98.10;;;;;;4249204;27;20070;-61
2024/01/14 07:38:20;;;;;;;45.83;28.10;;;1.10;97.80;;;;;;4249343;27;20044;-62
2024/01/14 07:40:22;;;;;;;63.83;38.40;;;1.20;97.40;;;;;;4248972;27;20039;-62
2024/01/14 07:42:25;;;;;;;63.03;37.35;;;1.10;97.20;;;;;;4249230;27;20062;-61
2024/01/14 07:44:27;;;;;;;58.38;36.78;;;1.10;97.50;;;;;;4248842;27;20058;-62
2024/01/14 07:46:29;;;;;;;58.97;37.10;;;1.00;97.70;;;;;;4248675;27;20406;-62
2024/01/14 07:48:33;;;;;;;60.50;39.55;;;0.90;97.80;;;;;;4248941;27;20584;-61
2024/01/14 07:50:35;;;;;;;64.63;39.88;;;1.00;97.70;;;;;;4248977;27;20541;-61
2024/01/14 07:52:39;;;;;;;62.20;37.72;;;0.80;97.40;;;;;;4248615;27;20047;-63
2024/01/14 07:54:41;;;;;;;65.25;39.47;;;0.80;97.90;;;;;;4248388;27;20043;-66
2024/01/14 07:56:43;;;;;;;60.90;38.47;;;0.80;98.10;;;;;;4249308;27;20386;-65
2024/01/14 07:58:45;;;;;;;63.10;39.67;;;0.80;98.10;;;;;;4250601;27;20073;-65
2024/01/14 08:00:47;;;;;;;54.50;34.95;;;0.90;98.10;;;;;;4250520;27;20471;-62
2024/01/14 08:03:03;;;;;;;57.03;35.65;;;1.00;98.50;;;;;;4249356;27;20042;-62
2024/01/14 08:05:05;;;;;;;62.45;37.90;;;1.00;98.30;;;;;;4248877;27;20081;-62
2024/01/14 08:07:07;;;;;;;62.33;38.97;;;1.10;98.50;;;;;;4248538;27;20045;-61
2024/01/14 08:09:11;;;;;;;53.97;34.58;;;1.00;98.10;;;;;;4248698;27;20088;-62
2024/01/14 08:11:14;;;;;;;58.28;37.72;;;1.00;98.40;;;;;;4249386;27;20051;-61
2024/01/14 08:13:18;;;;;;;53.50;34.47;;;1.00;98.00;;;;;;4249770;27;20047;-61
2024/01/14 08:15:20;;;;;;;58.60;37.28;;;1.10;98.70;;;;;;4231301;28;20074;-61
2024/01/14 08:17:22;;;;;;;55.08;33.33;;;1.20;97.80;;;;;;4249730;27;20043;-61
2024/01/14 08:19:26;;;;;;;56.90;34.63;;;1.30;98.20;;;;;;4249210;27;20058;-61
2024/01/14 08:21:28;;;;;;;50.85;33.47;;;1.40;98.50;;;;;;4249037;27;20126;-62
2024/01/14 08:23:32;;;;;;;56.38;37.08;;;1.30;97.90;;;;;;4248757;27;20043;-61
2024/01/14 08:25:36;;;;;;;59.00;37.70;;;1.20;97.60;;;;;;4248672;27;20085;-62
2024/01/14 08:27:41;;;;;;;57.47;36.10;;;1.20;97.90;;;;;;4248722;27;20505;-62
2024/01/14 08:29:44;;;;;;;56.67;36.42;;;1.20;97.70;;;;;;4248249;27;20071;-61
2024/01/14 08:31:55;;;;;;;54.90;35.78;;;1.20;97.40;;;;;;4248526;27;20043;-63
2024/01/14 08:33:57;;;;;;;59.33;37.17;;;1.20;97.60;;;;;;4248043;27;20047;-61
2024/01/14 08:36:00;;;;;;;60.50;37.80;;;1.20;97.10;;;;;;4248376;27;20122;-61
2024/01/14 08:38:02;;;;;;;58.05;37.08;;;1.20;97.30;;;;;;4248290;27;20055;-61
2024/01/14 08:40:05;;;;;;;59.97;37.35;;;1.20;97.60;;;;;;4248393;27;20047;-61
2024/01/14 08:42:09;;;;;;;58.50;36.60;;;1.30;97.60;;;;;;4248439;27;20100;-61
2024/01/14 08:44:11;;;;;;;46.05;28.58;;;1.30;97.50;;;;;;4248414;27;20054;-61
2024/01/14 08:46:13;;;;;;;60.25;37.30;;;1.40;97.40;;;;;;4250467;27;20080;-61
2024/01/14 08:48:16;;;;;;;58.50;36.22;;;1.40;97.40;;;;;;4249340;27;20125;-65
2024/01/14 08:50:19;;;;;;;58.15;37.00;;;1.40;97.50;;;;;;4248676;28;20464;-61
2024/01/14 08:52:21;;;;;;;57.33;37.45;;;1.40;97.40;;;;;;4248428;28;20050;-62
2024/01/14 08:54:23;;;;;;;58.70;37.38;;;1.50;97.40;;;;;;4248044;28;20057;-62
2024/01/14 08:56:26;;;;;;;59.45;38.47;;;1.60;97.60;;;;;;4248018;28;20100;-62
2024/01/14 08:58:29;;;;;;;64.30;38.80;;;1.50;97.10;;;;;;4248210;28;20096;-62
2024/01/14 09:00:33;;;;;;;61.45;37.13;;;1.50;97.10;;;;;;4248460;28;20050;-62
2024/01/14 09:02:35;;;;;;;56.13;35.22;;;1.50;97.00;;;;;;4248227;28;20413;-62
2024/01/14 09:04:38;;;;;;;63.85;38.55;;;1.50;97.40;;;;;;4231239;28;20484;-62
2024/01/14 09:06:40;;;;;;;63.70;40.22;;;1.50;97.30;;;;;;4251872;27;20071;-62
2024/01/14 09:08:43;;;;;;;65.78;39.45;;;1.60;97.50;;;;;;4251620;27;20050;-62
2024/01/14 09:10:47;;;;;;;62.45;39.65;;;1.50;96.80;;;;;;4251562;27;20724;-62
2024/01/14 09:12:51;;;;;;;59.13;35.78;;;1.50;96.90;;;;;;4251128;27;20066;-62
2024/01/14 09:14:54;;;;;;;60.67;37.45;;;1.60;97.30;;;;;;4251264;27;20104;-62
2024/01/14 09:16:57;;;;;;;60.78;38.60;;;1.60;97.20;;;;;;4251359;27;20100;-62
2024/01/14 09:18:59;;;;;;;57.33;36.78;;;1.70;97.30;;;;;;4251190;27;20046;-62
2024/01/14 09:21:02;;;;;;;58.22;35.55;;;1.90;97.40;;;;;;4251442;27;20112;-62
2024/01/14 09:23:04;;;;;;;59.28;36.80;;;1.80;97.40;;;;;;4251292;27;20050;-62
2024/01/14 09:25:06;;;;;;;54.40;35.28;;;1.80;96.60;;;;;;4251162;27;20046;-62
2024/01/14 09:27:13;;;;;;;61.85;39.13;;;1.80;96.90;;;;;;4251150;27;20039;-62
2024/01/14 09:29:16;;;;;;;57.30;37.05;;;1.90;96.70;;;;;;4251252;27;20054;-62
2024/01/14 09:31:21;;;;;;;56.20;36.50;;;1.80;96.90;;;;;;4251731;27;20047;-61
2024/01/14 09:33:24;;;;;;;57.83;37.50;;;2.00;97.30;;;;;;4252785;27;20050;-61
2024/01/14 09:35:26;;;;;;;65.97;39.00;;;1.70;96.20;;;;;;4251417;27;20047;-65
2024/01/14 09:37:31;;;;;;;58.92;38.67;;;1.70;97.10;;;;;;4251359;27;20043;-61
2024/01/14 09:39:33;;;;;;;62.28;39.47;;;1.90;97.40;;;;;;4250908;27;20497;-62
2024/01/14 09:41:41;;;;;;;59.50;36.75;;;1.80;96.90;;;;;;4250763;27;20485;-61
2024/01/14 09:43:48;;;;;;;60.17;37.70;;;2.00;97.40;;;;;;4250980;27;20404;-63
2024/01/14 09:45:50;;;;;;;57.85;37.15;;;2.00;97.00;;;;;;4250582;27;20088;-62
2024/01/14 09:47:56;;;;;;;58.25;35.92;;;2.00;97.40;;;;;;4250861;27;20056;-61
2024/01/14 09:50:00;;;;;;;53.92;34.28;;;2.10;97.10;;;;;;4250514;27;20066;-61
2024/01/14 09:52:05;;;;;;;62.03;38.40;;;2.10;97.30;;;;;;4232944;28;20466;-63
2024/01/14 09:54:07;;;;;;;41.45;26.38;;;2.00;96.50;;;;;;4251968;27;20500;-62
2024/01/14 09:56:13;;;;;;;58.78;37.60;;;2.10;96.80;;;;;;4252843;27;20497;-62
2024/01/14 09:58:17;;;;;;;54.67;35.65;;;2.00;96.30;;;;;;4254311;27;20051;-61
2024/01/14 10:00:22;;;;;;;59.28;38.47;;;2.00;96.60;;;;;;4254148;27;20043;-62
2024/01/14 10:02:26;;;;;;;56.20;36.83;;;2.10;96.20;;;;;;4254339;27;20054;-69
2024/01/14 10:04:30;;;;;;;53.53;35.58;;;2.00;96.90;;;;;;4253641;27;20059;-65
2024/01/14 10:06:35;;;;;;;62.42;39.53;;;2.20;97.30;;;;;;4253391;27;20054;-62
2024/01/14 10:08:38;;;;;;;58.78;37.90;;;2.10;96.40;;;;;;4233701;28;20130;-62
2024/01/14 10:10:40;;;;;;;55.40;35.90;;;2.10;97.10;;;;;;4250731;27;20100;-63
2024/01/14 10:12:42;;;;;;;60.60;39.38;;;2.20;96.20;;;;;;4251135;27;20047;-62
2024/01/14 10:14:55;;;;;;;62.47;39.42;;;2.10;96.40;;;;;;4251422;27;20433;-63
2024/01/14 10:16:57;;;;;;;60.15;39.60;;;2.20;97.00;;;;;;4251496;27;20047;-62
2024/01/14 10:19:00;;;;;;;62.70;39.70;;;2.10;96.10;;;;;;4252818;27;20444;-63
2024/01/14 10:21:04;;;;;;;61.28;38.60;;;2.10;96.10;;;;;;4252697;27;20039;-61
2024/01/14 10:23:06;;;;;;;63.50;39.88;;;2.20;96.20;;;;;;4251195;27;20129;-68
2024/01/14 10:25:08;;;;;;;60.15;39.05;;;2.20;96.30;;;;;;4233685;28;20456;-62
2024/01/14 10:27:16;;;;;;;63.83;39.00;;;2.20;96.20;;;;;;4252297;27;20049;-63
2024/01/14 10:29:24;;;;;;;66.43;39.15;;;2.20;96.50;;;;;;4250830;27;20396;-62
2024/01/14 10:31:26;;;;;;;66.95;41.63;;;2.20;96.10;;;;;;4250842;27;20051;-62
2024/01/14 10:33:32;;;;;;;65.07;41.08;;;2.20;96.30;;;;;;4251293;27;20070;-62